Time;durP1;ratioP1;P1;durP2;ratioP2;P2;SDS_P1;SDS_P2;PMS_P1;PMS_P2;Temp;Humidity;BMP_temperature;BMP_pressure;BME280_temperature;BME280_humidity;BME280_pressure;Samples;Min_cycle;Max_cycle;Signal;HPM_P1;HPM_P2
2021/06/04 00:01:45;;;;;;;;;10.50;10.50;;;;;22.60;56.71;101599.19;5056587;28;45235;-83
2021/06/04 00:04:11;;;;;;;;;10.25;10.25;;;;;22.59;56.91;101601.84;5059534;28;45423;-85
2021/06/04 00:06:37;;;;;;;;;12.25;11.50;;;;;22.55;57.11;101595.66;5060599;28;46408;-85
2021/06/04 00:09:06;;;;;;;;;14.00;11.75;;;;;22.61;56.95;101614.16;5055727;28;45799;-85
2021/06/04 00:11:34;;;;;;;;;13.25;13.25;;;;;22.62;57.03;101608.00;5055918;28;45332;-85
2021/06/04 00:14:04;;;;;;;;;10.50;10.50;;;;;22.50;57.27;101587.69;5056019;28;45486;-85
2021/06/04 00:16:39;;;;;;;;;10.00;9.50;;;;;22.59;56.47;101607.97;5053903;28;47803;-85
2021/06/04 00:19:10;;;;;;;;;12.25;11.00;;;;;22.55;57.33;101628.19;5055920;28;45826;-84
2021/06/04 00:21:46;;;;;;;;;10.50;10.50;;;;;22.60;57.18;101643.19;5057549;28;45434;-85
2021/06/04 00:24:14;;;;;;;;;17.50;14.75;;;;;22.56;57.68;101642.28;5059232;28;45444;-85
2021/06/04 00:26:43;;;;;;;;;14.00;12.25;;;;;22.67;57.47;101659.09;5059399;28;45412;-84
2021/06/04 00:29:09;;;;;;;;;17.75;15.75;;;;;22.65;57.53;101659.94;5059662;28;45807;-85
2021/06/04 00:31:35;;;;;;;;;16.50;13.75;;;;;22.63;56.99;101656.38;5058541;28;45282;-85
2021/06/04 00:34:01;;;;;;;;;15.75;13.00;;;;;22.63;57.69;101657.28;5061041;28;45570;-85
2021/06/04 00:36:27;;;;;;;;;15.00;13.00;;;;;22.58;57.55;101632.59;5062008;28;46701;-85
2021/06/04 00:38:54;;;;;;;;;13.00;12.75;;;;;22.66;57.33;101640.59;5071873;28;45409;-86
2021/06/04 00:41:24;;;;;;;;;14.50;13.00;;;;;22.67;57.39;101639.72;5076558;28;45388;-85
2021/06/04 00:43:51;;;;;;;;;16.50;14.00;;;;;22.66;57.34;101641.50;5081992;28;45162;-85
2021/06/04 00:46:17;;;;;;;;;13.00;13.00;;;;;22.55;57.27;101619.41;5073924;28;45457;-85
2021/06/04 00:48:42;;;;;;;;;16.25;14.75;;;;;22.67;57.60;101643.25;5063880;28;45318;-86
2021/06/04 00:51:14;;;;;;;;;17.00;16.00;;;;;22.64;57.37;101656.44;5058275;28;45431;-86
2021/06/04 00:53:41;;;;;;;;;18.25;18.00;;;;;22.56;57.40;101664.28;5059536;28;45240;-85
2021/06/04 00:56:07;;;;;;;;;18.75;17.75;;;;;22.53;57.83;101663.38;5059321;28;45526;-86
2021/06/04 00:58:38;;;;;;;;;21.50;20.75;;;;;22.64;58.11;101701.28;5061043;28;45357;-84
2021/06/04 01:01:05;;;;;;;;;19.00;17.25;;;;;22.54;58.25;101717.91;5064597;28;45329;-85
2021/06/04 01:03:32;;;;;;;;;19.25;16.25;;;;;22.36;58.26;101727.38;5063462;28;45548;-85
2021/06/04 01:06:27;;;;;;;;;22.50;19.00;;;;;22.31;58.70;101771.28;5058554;28;45542;-86
2021/06/04 01:09:19;;;;;;;;;19.75;18.75;;;;;22.06;59.04;101770.13;5063413;28;45447;-85
2021/06/04 01:12:16;;;;;;;;;20.75;18.00;;;;;22.01;59.31;101777.06;5062343;28;45255;-85
2021/06/04 01:15:23;;;;;;;;;23.25;18.50;;;;;21.74;59.87;101752.13;5059113;28;45396;-85
2021/06/04 01:18:08;;;;;;;;;18.25;17.75;;;;;21.62;60.55;101731.75;5057676;28;45680;-85
2021/06/04 01:20:44;;;;;;;;;23.00;19.75;;;;;21.49;60.62;101715.72;5057931;28;45973;-84
2021/06/04 01:23:31;;;;;;;;;21.25;19.25;;;;;21.40;60.85;101698.94;5058688;28;45276;-85
2021/06/04 01:26:15;;;;;;;;;22.25;19.50;;;;;21.28;60.51;101695.25;5057045;28;45326;-85
2021/06/04 01:28:48;;;;;;;;;23.25;21.25;;;;;21.30;60.02;101697.91;5056854;28;46860;-85
2021/06/04 01:31:43;;;;;;;;;23.25;22.50;;;;;21.30;60.39;101682.09;5057101;28;45449;-85
2021/06/04 01:34:14;;;;;;;;;25.50;20.25;;;;;21.31;59.97;101674.22;5062472;28;45369;-85
2021/06/04 01:36:49;;;;;;;;;24.75;24.25;;;;;21.22;60.50;101647.75;5077571;28;45263;-85
2021/06/04 01:39:25;;;;;;;;;23.50;21.75;;;;;21.28;60.70;101660.09;5085149;28;45284;-84
2021/06/04 01:41:53;;;;;;;;;22.50;22.50;;;;;21.24;60.43;101664.44;5082405;28;45018;-85
2021/06/04 01:44:38;;;;;;;;;21.75;20.75;;;;;21.25;61.24;101684.66;5079894;28;44706;-83
2021/06/04 01:47:11;;;;;;;;;22.50;21.75;;;;;21.24;61.26;101669.72;5081056;28;45256;-84
2021/06/04 01:49:40;;;;;;;;;27.00;21.50;;;;;21.24;61.20;101667.09;5072123;28;45821;-84
2021/06/04 01:52:23;;;;;;;;;20.75;20.25;;;;;21.35;60.41;101675.16;5068431;28;45734;-85
2021/06/04 01:55:02;;;;;;;;;24.75;23.25;;;;;21.29;60.63;101673.31;5061441;28;45421;-85
2021/06/04 01:57:49;;;;;;;;;21.75;20.25;;;;;21.34;61.27;101673.38;5059103;28;45378;-85
2021/06/04 02:00:32;;;;;;;;;22.25;20.50;;;;;21.37;61.15;101664.63;5057928;28;45542;-84
2021/06/04 02:02:59;;;;;;;;;20.00;20.00;;;;;21.37;60.73;101657.63;5057521;28;45938;-85
2021/06/04 02:05:33;;;;;;;;;23.50;21.50;;;;;21.26;61.02;101643.44;5056360;28;45421;-85
2021/06/04 02:08:00;;;;;;;;;26.50;24.75;;;;;21.11;61.15;101633.56;5060803;28;45429;-86
2021/06/04 02:10:34;;;;;;;;;29.00;23.25;;;;;21.09;61.57;101637.91;5059003;28;47474;-86
2021/06/04 02:13:00;;;;;;;;;20.00;19.75;;;;;20.98;61.70;101612.31;5056274;28;45821;-85
2021/06/04 02:15:30;;;;;;;;;27.75;24.75;;;;;21.02;62.13;101634.31;5057420;28;45298;-86
2021/06/04 02:18:13;;;;;;;;;24.75;20.50;;;;;20.98;62.08;101649.19;5058019;28;45399;-85
2021/06/04 02:20:45;;;;;;;;;19.75;18.75;;;;;20.95;61.78;101653.50;5057411;28;48220;-85
2021/06/04 02:23:10;;;;;;;;;30.50;24.50;;;;;;;;5062136;28;45758;-85
2021/06/04 02:25:48;;;;;;;;;23.25;22.75;;;;;21.09;61.43;101664.25;5061124;28;45589;-84
2021/06/04 02:28:36;;;;;;;;;22.00;20.00;;;;;21.15;61.56;101652.06;5065363;28;44817;-84
2021/06/04 02:31:22;;;;;;;;;21.50;19.75;;;;;21.17;61.21;101654.69;5060824;28;45332;-86
2021/06/04 02:33:56;;;;;;;;;22.50;20.75;;;;;21.12;61.28;101649.38;5056084;28;45323;-84
2021/06/04 02:36:27;;;;;;;;;22.25;20.50;;;;;21.01;61.38;101641.31;5058422;28;45425;-85
2021/06/04 02:39:02;;;;;;;;;20.75;20.25;;;;;21.15;61.41;101664.31;5061901;28;45691;-84
2021/06/04 02:41:38;;;;;;;;;22.50;20.25;;;;;21.34;61.64;101692.69;5064538;28;48534;-85
2021/06/04 02:44:16;;;;;;;;;26.50;20.50;;;;;21.31;61.86;101713.75;5064414;28;45845;-85
2021/06/04 02:46:47;;;;;;;;;21.50;21.25;;;;;21.22;62.08;101746.94;5058273;28;45399;-84
2021/06/04 02:49:15;;;;;;;;;25.25;21.25;;;;;21.11;61.86;101752.94;5057450;28;45417;-85
2021/06/04 02:51:52;;;;;;;;;18.00;16.50;;;;;21.12;63.41;101711.66;5057109;28;45430;-85
2021/06/04 02:54:22;;;;;;;;;23.00;22.75;;;;;21.21;63.18;101680.22;5057828;28;46039;-85
2021/06/04 02:57:00;;;;;;;;;24.75;20.50;;;;;21.16;63.02;101652.94;5056521;28;45614;-85
2021/06/04 02:59:30;;;;;;;;;23.25;21.25;;;;;21.07;63.03;101656.31;5057078;28;45410;-85
2021/06/04 03:02:03;;;;;;;;;21.00;18.50;;;;;21.04;63.81;101666.81;5056658;28;45570;-85
2021/06/04 03:04:35;;;;;;;;;19.50;18.00;;;;;21.13;63.79;101689.75;5055169;28;45315;-84
2021/06/04 03:07:06;;;;;;;;;22.75;21.50;;;;;21.12;63.70;101699.41;5056093;28;45372;-84
2021/06/04 03:09:38;;;;;;;;;19.25;17.50;;;;;21.17;64.50;101733.72;5058457;28;45457;-85
2021/06/04 03:12:16;;;;;;;;;24.50;20.25;;;;;21.08;63.72;101738.84;5055517;28;47783;-85
2021/06/04 03:14:43;;;;;;;;;13.75;13.75;;;;;21.04;64.04;101693.16;5055152;28;45676;-85
2021/06/04 03:17:10;;;;;;;;;15.50;13.00;;;;;;;;5055615;28;45386;-85
2021/06/04 03:19:36;;;;;;;;;18.00;16.00;;;;;21.17;64.21;101650.31;5056406;28;45643;-85
2021/06/04 03:22:11;;;;;;;;;18.00;15.25;;;;;21.15;64.85;101640.63;5056473;28;46290;-85
2021/06/04 03:24:42;;;;;;;;;18.00;13.50;;;;;21.21;64.52;101617.03;5056334;28;45851;-85
2021/06/04 03:27:09;;;;;;;;;16.25;15.50;;;;;21.22;64.60;101605.59;5056541;28;45370;-85
2021/06/04 03:29:35;;;;;;;;;15.25;12.75;;;;;21.19;63.62;101590.66;5054834;28;45549;-84
2021/06/04 03:32:07;;;;;;;;;19.50;15.50;;;;;21.24;64.22;101580.16;5054574;28;46836;-85
2021/06/04 03:34:34;;;;;;;;;13.75;13.25;;;;;21.30;63.66;101589.91;5056891;28;45434;-85
2021/06/04 03:37:01;;;;;;;;;11.25;11.25;;;;;21.33;63.68;101601.34;5071298;28;45397;-84
2021/06/04 03:39:31;;;;;;;;;13.00;13.00;;;;;21.34;63.02;101589.09;5076292;28;44912;-85
2021/06/04 03:41:57;;;;;;;;;12.75;11.50;;;;;21.23;63.04;101565.22;5063410;28;45268;-84
2021/06/04 03:44:27;;;;;;;;;14.50;13.75;;;;;21.25;62.96;101555.59;5059823;28;45474;-85
2021/06/04 03:46:53;;;;;;;;;17.00;15.50;;;;;21.17;63.48;101541.47;5056610;28;45421;-85
2021/06/04 03:49:21;;;;;;;;;16.75;14.75;;;;;21.26;62.83;101556.50;5063027;28;45591;-85
2021/06/04 03:51:49;;;;;;;;;14.00;14.00;;;;;21.20;63.98;101559.94;5062661;28;45500;-85
2021/06/04 03:54:21;;;;;;;;;17.50;17.25;;;;;21.19;63.88;101569.59;5058025;28;45931;-84
2021/06/04 03:56:48;;;;;;;;;20.75;19.75;;;;;21.15;63.62;101554.63;5058472;28;45296;-86
2021/06/04 03:59:13;;;;;;;;;21.75;21.00;;;;;21.09;63.76;101554.53;5059816;28;45420;-85
2021/06/04 04:01:56;;;;;;;;;18.50;16.00;;;;;21.17;64.06;101576.56;5059981;28;45637;-85
2021/06/04 04:04:22;;;;;;;;;20.00;17.00;;;;;21.18;63.60;101566.94;5059185;28;45972;-84
2021/06/04 04:06:48;;;;;;;;;21.75;17.00;;;;;21.15;63.23;101551.09;5060642;28;45413;-85
2021/06/04 04:09:15;;;;;;;;;21.25;18.50;;;;;21.18;62.92;101559.91;5060631;28;45337;-84
2021/06/04 04:11:42;;;;;;;;;19.50;17.75;;;;;21.21;63.18;101550.28;5059289;28;47149;-84
2021/06/04 04:14:08;;;;;;;;;22.50;21.50;;;;;21.23;63.08;101546.81;5060986;28;45423;-85
2021/06/04 04:16:34;;;;;;;;;21.00;19.00;;;;;21.14;63.41;101536.16;5067888;28;45483;-85
2021/06/04 04:19:01;;;;;;;;;20.50;17.50;;;;;21.14;63.26;101520.34;5079123;28;45125;-85
2021/06/04 04:21:27;;;;;;;;;20.50;18.00;;;;;21.16;63.72;101532.69;5078794;28;45261;-86
2021/06/04 04:23:56;;;;;;;;;17.50;17.00;;;;;21.26;63.63;101552.13;5073165;28;45412;-85
2021/06/04 04:26:28;;;;;;;;;20.50;18.25;;;;;21.26;63.36;101553.88;5065391;28;45212;-86
2021/06/04 04:28:53;;;;;;;;;21.75;20.50;;;;;21.31;63.87;101560.06;5058372;28;45582;-86
2021/06/04 04:31:26;;;;;;;;;25.50;23.00;;;;;21.32;63.77;101559.22;5059087;28;45501;-86
2021/06/04 04:33:53;;;;;;;;;21.25;19.50;;;;;21.33;63.79;101534.63;5058269;28;45399;-86
2021/06/04 04:36:26;;;;;;;;;25.00;22.75;;;;;21.36;63.15;101531.16;5058428;28;45427;-86
2021/06/04 04:38:52;;;;;;;;;29.25;23.00;;;;;21.27;62.72;101511.75;5062071;28;45693;-86
2021/06/04 04:41:18;;;;;;;;;19.00;19.00;;;;;21.32;63.32;101524.97;5057750;28;46805;-87
2021/06/04 04:43:50;;;;;;;;;22.75;20.50;;;;;21.45;62.73;101532.16;5060489;28;45413;-85
2021/06/04 04:46:18;;;;;;;;;19.75;17.00;;;;;21.42;63.03;101524.19;5059465;28;45301;-85
2021/06/04 04:48:44;;;;;;;;;17.75;17.00;;;;;21.51;63.04;101539.25;5059006;28;45383;-85
2021/06/04 04:51:10;;;;;;;;;23.00;18.75;;;;;21.40;62.20;101499.59;5058879;28;45423;-85
2021/06/04 04:53:36;;;;;;;;;21.75;18.00;;;;;21.45;62.55;101492.63;5058890;28;45816;-85
2021/06/04 04:56:04;;;;;;;;;22.00;18.75;;;;;21.59;62.26;101513.00;5057205;28;45376;-85
2021/06/04 04:58:29;;;;;;;;;19.25;17.50;;;;;21.58;62.20;101504.19;5057198;28;45278;-86
2021/06/04 05:00:56;;;;;;;;;19.00;17.00;;;;;21.65;62.67;101506.03;5058204;28;45294;-85
2021/06/04 05:03:23;;;;;;;;;15.00;14.00;;;;;21.71;61.82;101512.25;5056915;28;45434;-85
2021/06/04 05:05:50;;;;;;;;;14.25;13.00;;;;;21.76;62.00;101515.78;5060207;28;45464;-85
2021/06/04 05:08:17;;;;;;;;;18.00;16.25;;;;;21.75;62.35;101520.19;5064116;28;45452;-85
2021/06/04 05:10:43;;;;;;;;;16.50;12.75;;;;;21.73;61.47;101543.00;5059629;28;45424;-84
2021/06/04 05:13:08;;;;;;;;;21.25;18.75;;;;;21.73;61.80;101586.94;5059151;28;45841;-85
2021/06/04 05:15:37;;;;;;;;;12.50;12.00;;;;;21.60;61.37;101662.31;5058951;28;45257;-84
2021/06/04 05:18:04;;;;;;;;;13.50;13.50;;;;;21.15;62.15;101702.09;5058150;28;45572;-85
2021/06/04 05:20:30;;;;;;;;;13.50;12.75;;;;;20.98;62.83;101674.59;5058694;28;46212;-85
2021/06/04 05:22:57;;;;;;;;;4.00;4.00;;;;;20.19;70.51;101725.81;5058167;28;45499;-82
2021/06/04 05:25:29;;;;;;;;;0.00;0.00;;;;;19.17;71.96;101738.47;5057944;28;45377;-82
2021/06/04 05:27:55;;;;;;;;;1.00;0.00;;;;;18.48;75.32;101697.34;5058755;28;45536;-81
2021/06/04 05:30:31;;;;;;;;;0.00;0.00;;;;;18.12;76.77;101692.88;5058286;28;46040;-80
2021/06/04 05:32:57;;;;;;;;;0.00;0.00;;;;;18.05;76.77;101720.66;5059941;28;45451;-78
2021/06/04 05:35:25;;;;;;;;;0.00;0.00;;;;;18.01;77.08;101703.97;5068354;28;45327;-79
2021/06/04 05:37:51;;;;;;;;;0.50;0.50;;;;;18.06;77.53;101715.44;5072419;28;45256;-81
2021/06/04 05:40:21;;;;;;;;;2.50;1.00;;;;;18.05;79.51;101726.75;5074299;28;45491;-86
2021/06/04 05:42:47;;;;;;;;;1.75;1.00;;;;;18.19;78.50;101732.44;5070202;28;44990;-91
2021/06/04 05:45:19;;;;;;;;;0.75;0.75;;;;;18.24;76.80;101722.94;5065507;28;45300;-88
2021/06/04 05:47:46;;;;;;;;;1.00;1.00;;;;;18.28;76.49;101729.16;5061314;28;45432;-86
2021/06/04 05:50:16;;;;;;;;;2.50;2.50;;;;;18.29;73.43;101724.81;5057050;28;47632;-84
2021/06/04 05:52:45;;;;;;;;;2.50;1.50;;;;;18.29;73.76;101701.22;5057665;28;45806;-87
2021/06/04 05:55:14;;;;;;;;;3.25;3.25;;;;;18.63;74.15;101737.09;5058651;28;45429;-85
2021/06/04 05:57:41;;;;;;;;;3.00;3.00;;;;;18.72;73.20;101732.06;5058826;28;45502;-85
2021/06/04 06:00:12;;;;;;;;;2.00;1.75;;;;;18.82;72.42;101730.59;5058125;28;46626;-85
2021/06/04 06:02:39;;;;;;;;;6.50;3.25;;;;;18.88;72.47;101714.13;5058180;28;45264;-85
2021/06/04 06:05:06;;;;;;;;;5.00;3.75;;;;;18.95;72.20;101717.81;5069794;27;45465;-87
2021/06/04 06:07:31;;;;;;;;;6.75;5.00;;;;;18.98;73.45;101710.91;5072835;28;45953;-87
2021/06/04 06:09:57;;;;;;;;;5.50;4.50;;;;;19.03;72.97;101693.50;5063604;28;44959;-84
2021/06/04 06:12:23;;;;;;;;;4.50;4.50;;;;;19.04;73.27;101670.81;5057915;28;45620;-77
2021/06/04 06:14:48;;;;;;;;;4.75;3.50;;;;;19.01;71.92;101666.34;5057920;28;45539;-80
2021/06/04 06:17:14;;;;;;;;;5.75;3.00;;;;;19.17;73.33;101670.22;5080582;27;45393;-84
2021/06/04 06:19:40;;;;;;;;;5.25;4.75;;;;;19.24;73.10;101666.00;5077543;27;45725;-85
2021/06/04 06:22:05;;;;;;;;;7.25;3.50;;;;;19.23;72.41;101648.47;5057269;28;45405;-78
2021/06/04 06:24:31;;;;;;;;;3.75;2.75;;;;;19.14;72.02;101645.63;5057049;28;45367;-81
2021/06/04 06:26:57;;;;;;;;;6.00;4.25;;;;;19.18;71.89;101637.00;5055922;27;45403;-80
2021/06/04 06:29:23;;;;;;;;;6.50;5.50;;;;;19.30;71.66;101660.00;5054988;28;46478;-78
2021/06/04 06:31:49;;;;;;;;;4.50;4.50;;;;;19.28;71.53;101665.22;5056447;28;45359;-87
2021/06/04 06:34:15;;;;;;;;;2.75;2.75;;;;;19.44;71.25;101669.06;5057586;28;45183;-77
2021/06/04 06:36:44;;;;;;;;;3.50;3.50;;;;;19.49;71.25;101656.91;5057256;28;45687;-79
2021/06/04 06:39:17;;;;;;;;;3.75;3.75;;;;;19.59;70.58;101655.38;5057564;28;45410;-82
2021/06/04 06:41:45;;;;;;;;;2.50;2.50;;;;;19.63;70.72;101641.47;5057980;28;45826;-79
2021/06/04 06:44:11;;;;;;;;;3.00;3.00;;;;;19.67;70.63;101631.91;5058523;28;45428;-82
2021/06/04 06:46:38;;;;;;;;;3.00;3.00;;;;;19.74;70.58;101635.53;5057886;28;45515;-83
2021/06/04 06:49:05;;;;;;;;;4.00;3.25;;;;;19.84;70.20;101639.22;5055462;28;47002;-83
2021/06/04 06:51:33;;;;;;;;;3.50;2.50;;;;;19.92;70.70;101635.06;5056003;28;45244;-82
2021/06/04 06:53:59;;;;;;;;;1.75;1.75;;;;;20.08;69.17;101652.88;5056482;28;45408;-77
2021/06/04 06:56:26;;;;;;;;;4.50;3.00;;;;;20.18;69.25;101653.06;5057362;28;45382;-80
2021/06/04 06:58:53;;;;;;;;;3.00;3.00;;;;;20.31;68.66;101659.41;5057542;28;46400;-81
2021/06/04 07:01:18;;;;;;;;;2.00;2.00;;;;;20.45;67.99;101662.31;5057159;28;45374;-80
2021/06/04 07:03:45;;;;;;;;;1.50;1.50;;;;;20.60;68.17;101657.28;5064868;28;45355;-80
2021/06/04 07:06:17;;;;;;;;;3.00;3.00;;;;;20.63;68.45;101641.56;5064297;28;45534;-84
2021/06/04 07:08:44;;;;;;;;;5.00;1.50;;;;;20.86;66.75;101670.91;5056341;28;46679;-85
2021/06/04 07:11:10;;;;;;;;;3.25;2.75;;;;;20.96;66.68;101673.69;5063243;28;45712;-79
2021/06/04 07:13:36;;;;;;;;;4.00;4.00;;;;;20.98;66.29;101667.59;5061765;28;45391;-83
2021/06/04 07:16:05;;;;;;;;;4.25;3.00;;;;;21.05;66.59;101676.50;5057274;28;46067;-83
2021/06/04 07:18:31;;;;;;;;;4.00;3.75;;;;;21.10;66.91;101666.03;5059148;28;46019;-84
2021/06/04 07:20:56;;;;;;;;;3.50;2.50;;;;;21.17;66.50;101665.25;5056839;27;45500;-83
2021/06/04 07:23:24;;;;;;;;;4.50;4.25;;;;;21.22;66.31;101660.03;5067651;28;45382;-83
2021/06/04 07:25:50;;;;;;;;;4.50;4.00;;;;;21.26;66.74;101675.03;5074274;28;44912;-78
2021/06/04 07:28:19;;;;;;;;;6.25;4.00;;;;;21.30;65.50;101661.03;5078310;28;45053;-87
2021/06/04 07:30:48;;;;;;;;;4.00;4.00;;;;;21.35;65.61;101656.72;5070589;28;45738;-82
2021/06/04 07:33:51;;;;;;;;;2.00;2.00;;;;;21.36;65.19;101662.84;5066263;28;45226;-87
2021/06/04 07:36:24;;;;;;;;;3.50;3.50;;;;;21.36;65.62;101660.22;5068330;28;45354;-92
2021/06/04 07:38:51;;;;;;;;;6.25;5.00;;;;;21.42;66.14;101665.59;5068590;28;45474;-89
2021/06/04 07:41:17;;;;;;;;;5.50;5.50;;;;;21.43;65.36;101667.38;5066974;28;45744;-89
2021/06/04 07:43:45;;;;;;;;;3.25;2.00;;;;;21.42;64.96;101662.97;5066025;28;45348;-83
2021/06/04 07:46:14;;;;;;;;;2.75;2.00;;;;;21.35;65.97;101659.34;5076024;28;45512;-90
2021/06/04 07:48:40;;;;;;;;;1.50;1.50;;;;;21.46;64.71;101672.66;5074003;28;45397;-89
2021/06/04 07:51:10;;;;;;;;;3.75;2.50;;;;;21.55;65.12;101671.91;5063748;28;45243;-85
2021/06/04 07:53:39;;;;;;;;;4.00;4.00;;;;;21.67;64.99;101671.19;5055479;28;45244;-75
2021/06/04 07:56:06;;;;;;;;;5.25;3.25;;;;;21.76;65.23;101666.94;5056354;28;45299;-84
2021/06/04 07:58:31;;;;;;;;;6.00;6.00;;;;;21.85;63.80;101655.63;5055994;28;45575;-78
2021/06/04 08:01:00;;;;;;;;;4.25;4.25;;;;;21.92;63.89;101657.44;5055379;28;45516;-79
2021/06/04 08:03:27;;;;;;;;;7.00;6.50;;;;;21.93;63.87;101645.13;5055497;28;45474;-82
2021/06/04 08:05:53;;;;;;;;;6.25;6.25;;;;;22.04;64.24;101655.81;5055794;28;45279;-80
2021/06/04 08:08:22;;;;;;;;;7.75;6.00;;;;;22.08;65.11;101655.00;5054918;28;45391;-84
2021/06/04 08:10:49;;;;;;;;;6.25;5.00;;;;;22.10;65.43;101645.31;5053095;28;45497;-82
2021/06/04 08:13:19;;;;;;;;;9.25;6.75;;;;;22.18;65.62;101635.75;5054113;28;45485;-78
2021/06/04 08:16:01;;;;;;;;;10.00;8.75;;;;;22.21;65.45;101638.41;5053111;28;45430;-78
2021/06/04 08:18:31;;;;;;;;;6.00;6.00;;;;;22.22;64.87;101634.03;5055013;28;46501;-78
2021/06/04 08:20:59;;;;;;;;;5.50;5.00;;;;;22.28;64.60;101636.72;5057709;28;45462;-81
2021/06/04 08:23:31;;;;;;;;;4.25;4.25;;;;;22.35;62.68;101643.81;5060635;28;45542;-82
2021/06/04 08:25:58;;;;;;;;;4.50;2.25;;;;;22.43;62.33;101643.91;5055386;28;45449;-82
2021/06/04 08:28:26;;;;;;;;;4.00;4.00;;;;;22.51;63.59;101649.25;5060294;28;45362;-87
2021/06/04 08:30:52;;;;;;;;;5.00;4.00;;;;;22.55;63.55;101636.09;5061886;28;45247;-89
2021/06/04 08:33:37;;;;;;;;;4.00;4.00;;;;;22.66;62.63;101636.22;5060872;27;45345;-90
2021/06/04 08:36:09;;;;;;;;;5.25;5.25;;;;;22.76;62.26;101650.34;5060431;28;45352;-91
2021/06/04 08:38:38;;;;;;;;;4.25;4.25;;;;;22.76;62.53;101658.25;5056491;28;46013;-88
2021/06/04 08:41:23;;;;;;;;;3.00;3.00;;;;;22.78;61.21;101655.66;5054972;28;45459;-84
2021/06/04 08:44:08;;;;;;;;;3.00;2.50;;;;;22.75;60.39;101656.50;5061660;28;45413;-79
2021/06/04 08:46:38;;;;;;;;;3.00;3.00;;;;;22.68;60.50;101652.91;5061266;28;45492;-78
2021/06/04 08:49:22;;;;;;;;;3.00;3.00;;;;;22.68;60.72;101647.63;5059383;28;45483;-80
2021/06/04 08:51:51;;;;;;;;;4.00;4.00;;;;;22.69;60.66;101645.91;5061847;28;45918;-82
2021/06/04 08:54:45;;;;;;;;;2.75;2.75;;;;;22.72;62.21;101646.81;5063999;28;45485;-83
2021/06/04 08:57:15;;;;;;;;;5.00;5.00;;;;;22.73;61.03;101658.25;5022566;28;45342;-81
2021/06/04 08:59:42;;;;;;;;;5.50;4.00;;;;;22.73;61.49;101656.50;5058988;28;46273;-82
2021/06/04 09:02:19;;;;;;;;;5.50;4.25;;;;;22.77;61.96;101656.53;5057516;28;45726;-82
2021/06/04 09:04:58;;;;;;;;;5.00;4.75;;;;;22.83;60.91;101664.47;5058411;28;45433;-80
2021/06/04 09:07:35;;;;;;;;;4.00;3.75;;;;;22.90;61.33;101660.13;5060264;28;45360;-82
2021/06/04 09:10:31;;;;;;;;;4.50;4.50;;;;;22.99;61.10;101665.47;5039700;28;45389;-83
2021/06/04 09:13:13;;;;;;;;;3.50;3.50;;;;;23.07;60.47;101666.41;5046421;28;45773;-80
2021/06/04 09:15:41;;;;;;;;;6.00;4.75;;;;;23.16;60.63;101669.09;5057581;28;45510;-80
2021/06/04 09:18:25;;;;;;;;;2.00;2.00;;;;;23.24;59.70;101658.63;5058142;28;45641;-83
2021/06/04 09:20:56;;;;;;;;;4.00;3.00;;;;;23.30;60.79;101665.69;5057785;28;45495;-83
2021/06/04 09:23:35;;;;;;;;;4.25;3.25;;;;;23.43;60.50;101672.81;5060973;28;45512;-80
2021/06/04 09:26:01;;;;;;;;;7.00;5.25;;;;;23.55;59.35;101668.47;5058709;28;45504;-78
2021/06/04 09:28:37;;;;;;;;;5.25;4.00;;;;;23.59;58.81;101673.78;5057381;28;45472;-79
2021/06/04 09:31:18;;;;;;;;;5.50;4.25;;;;;23.62;58.52;101672.91;5056714;28;46078;-80
2021/06/04 09:33:49;;;;;;;;;4.75;3.75;;;;;23.59;57.98;101678.19;5056361;28;45424;-78
2021/06/04 09:36:20;;;;;;;;;4.25;4.00;;;;;23.60;58.32;101670.25;5053848;28;45264;-77
2021/06/04 09:38:53;;;;;;;;;5.00;5.00;;;;;23.68;58.20;101675.59;5057045;28;45746;-78
2021/06/04 09:41:40;;;;;;;;;5.25;5.25;;;;;23.81;58.09;101681.78;5056619;28;45378;-79
2021/06/04 09:44:09;;;;;;;;;4.25;4.25;;;;;23.81;57.57;101685.31;5055685;27;45413;-80
2021/06/04 09:46:53;;;;;;;;;6.75;4.00;;;;;23.83;57.83;101677.41;5057073;28;45264;-86
2021/06/04 09:49:45;;;;;;;;;6.50;6.50;;;;;23.88;57.87;101677.41;5059338;28;45284;-86
2021/06/04 09:52:20;;;;;;;;;8.00;6.50;;;;;23.92;57.89;101672.13;5059203;28;45439;-87
2021/06/04 09:54:46;;;;;;;;;6.00;6.00;;;;;23.91;57.57;101661.56;5059935;27;45720;-80
2021/06/04 09:57:18;;;;;;;;;6.25;5.50;;;;;24.01;57.37;101679.25;5057430;28;45500;-81
2021/06/04 09:59:45;;;;;;;;;8.00;7.00;;;;;24.02;57.26;101686.31;5056781;28;45316;-78
2021/06/04 10:02:32;;;;;;;;;6.25;5.25;;;;;24.12;57.40;101687.22;5056040;28;45421;-80
2021/06/04 10:05:26;;;;;;;;;7.25;6.25;;;;;24.23;57.75;101681.94;5070906;28;45459;-78
2021/06/04 10:08:25;;;;;;;;;7.75;6.75;;;;;24.26;57.04;101682.84;5056073;28;45468;-79
2021/06/04 10:11:11;;;;;;;;;10.00;10.00;;;;;24.30;56.79;101683.72;5053636;28;45636;-78
2021/06/04 10:13:53;;;;;;;;;12.00;11.25;;;;;24.22;57.11;101680.19;5055949;28;46474;-78
2021/06/04 10:16:39;;;;;;;;;15.25;10.75;;;;;24.21;57.26;101683.72;5052788;27;45762;-79
2021/06/04 10:19:36;;;;;;;;;16.00;13.50;;;;;24.22;57.09;101686.34;5056091;28;45432;-84
2021/06/04 10:22:26;;;;;;;;;11.75;10.00;;;;;24.26;57.06;101689.88;5046449;28;45346;-79
2021/06/04 10:25:14;;;;;;;;;10.00;10.00;;;;;24.27;56.38;101681.97;5064197;28;45374;-81
2021/06/04 10:27:44;;;;;;;;;9.00;8.00;;;;;24.39;55.87;101693.44;5060541;28;45583;-83
2021/06/04 10:30:22;;;;;;;;;11.25;10.00;;;;;24.46;55.96;101689.91;5057319;28;45401;-86
2021/06/04 10:32:53;;;;;;;;;10.75;10.75;;;;;24.48;56.64;101692.56;5058872;28;45803;-83
2021/06/04 10:35:25;;;;;;;;;13.25;8.25;;;;;24.52;56.16;101696.97;5055743;28;45648;-81
2021/06/04 10:38:07;;;;;;;;;13.50;11.00;;;;;24.55;55.33;101697.00;5055685;28;45294;-85
2021/06/04 10:40:49;;;;;;;;;14.25;13.50;;;;;24.41;56.38;101705.78;5057196;28;45476;-82
2021/06/04 10:43:17;;;;;;;;;16.25;13.25;;;;;24.33;56.40;101704.00;5058811;28;45343;-84
2021/06/04 10:45:55;;;;;;;;;14.50;12.75;;;;;24.23;57.03;101711.94;5047522;28;45957;-81
2021/06/04 10:48:39;;;;;;;;;10.50;10.50;;;;;24.29;56.72;101708.41;5054464;28;45714;-82
2021/06/04 10:51:13;;;;;;;;;15.25;13.75;;;;;24.33;56.90;101709.28;5058413;28;45603;-82
2021/06/04 10:54:15;;;;;;;;;16.50;13.50;;;;;24.39;56.86;101710.19;5057777;28;45482;-80
2021/06/04 10:57:00;;;;;;;;;12.00;10.25;;;;;24.46;56.88;101712.88;5057485;28;45674;-82
2021/06/04 10:59:50;;;;;;;;;9.75;9.75;;;;;24.48;56.28;101711.97;5055350;28;45800;-78
2021/06/04 11:02:43;;;;;;;;;12.50;9.00;;;;;24.22;56.42;101704.88;5056104;28;45289;-81
2021/06/04 11:05:36;;;;;;;;;10.00;10.00;;;;;24.04;56.90;101716.28;5055926;28;45743;-80
2021/06/04 11:08:22;;;;;;;;;8.75;8.00;;;;;23.85;57.00;101714.41;5056076;28;46402;-86
2021/06/04 11:10:53;;;;;;;;;10.25;9.75;;;;;23.69;57.48;101718.75;5060535;28;45395;-85
2021/06/04 11:13:56;;;;;;;;;8.00;6.25;;;;;23.52;57.50;101719.56;5075865;27;45357;-82
2021/06/04 11:16:54;;;;;;;;;7.50;7.00;;;;;23.46;57.87;101715.13;5055107;28;45620;-79
2021/06/04 11:19:37;;;;;;;;;9.00;8.75;;;;;23.31;57.97;101718.56;5054421;27;46163;-77
2021/06/04 11:22:12;;;;;;;;;7.00;6.00;;;;;23.32;58.17;101716.78;5057443;28;45327;-79
2021/06/04 11:24:46;;;;;;;;;6.75;6.00;;;;;23.45;57.80;101713.38;5058722;28;45470;-77
2021/06/04 11:27:21;;;;;;;;;8.50;6.25;;;;;23.54;57.71;101699.28;5060416;28;45212;-81
2021/06/04 11:29:48;;;;;;;;;5.75;5.75;;;;;23.56;57.53;101694.03;5059049;28;46158;-79
2021/06/04 11:32:21;;;;;;;;;5.50;5.50;;;;;23.62;57.64;101700.22;5056431;28;45459;-80
2021/06/04 11:34:55;;;;;;;;;9.00;7.50;;;;;23.75;57.33;101710.88;5056317;28;45338;-80
2021/06/04 11:37:40;;;;;;;;;5.00;5.00;;;;;23.81;57.04;101706.47;5056015;28;45557;-81
2021/06/04 11:40:29;;;;;;;;;5.75;5.75;;;;;23.92;56.84;101710.91;5056809;28;46569;-81
2021/06/04 11:43:02;;;;;;;;;8.25;6.75;;;;;23.89;56.90;101701.22;5054037;28;45423;-80